Terminal Aerodrome Forecast
Issued by NWS Dallas/Fort Worth, TX

Home | Current Version | Previous Version | Text Only | Print | Product List | Glossary On
Versions: 1 2 3 4 5 6 7 8 9 10 11 12 13 14 15 16 17 18 19 20 21 22 23 24 25 26
000
FTUS44 KFWD 230300 CCA
TAFACT
TAF COR
KACT 230315Z 2303/2324 33007KT P6SM BKN150
     FM231100 35012KT 6SM RA OVC030
      TEMPO 2315/2319 5SM RA BKN022
     FM232200 32013KT P6SM OVC040
     FM232300 33009KT P6SM OVC070=

USA.gov is the U.S. government's official web portal to all federal, state and local government web resources and services.